createdAt,value
2022-08-23T00:02:02.490Z,3.53
2022-08-23T00:04:35.186Z,3.53
2022-08-23T00:07:06.737Z,4.28
2022-08-23T00:09:36.485Z,3.67
2022-08-23T00:12:11.183Z,4.13
2022-08-23T00:14:46.903Z,3.95
2022-08-23T00:17:33.254Z,3.83
2022-08-23T00:20:04.487Z,3.42
2022-08-23T00:22:34.221Z,3.80
2022-08-23T00:25:04.079Z,3.70
2022-08-23T00:27:34.164Z,3.65
2022-08-23T00:30:10.992Z,3.72
2022-08-23T00:32:42.208Z,3.40
2022-08-23T00:35:26.473Z,4.25
2022-08-23T00:38:31.796Z,4.20
2022-08-23T00:40:51.242Z,3.90
2022-08-23T00:43:38.197Z,3.97
2022-08-23T00:46:35.274Z,3.95
2022-08-23T00:49:09.981Z,3.50
2022-08-23T00:51:53.302Z,3.72
2022-08-23T00:54:25.222Z,3.25
2022-08-23T00:56:56.477Z,3.75
2022-08-23T00:59:26.748Z,3.40
2022-08-23T01:01:59.810Z,3.20
2022-08-23T01:04:31.875Z,3.30
2022-08-23T01:07:06.888Z,2.92
2022-08-23T01:09:36.719Z,3.47
2022-08-23T01:12:11.105Z,3.70
2022-08-23T01:14:44.261Z,3.60
2022-08-23T01:17:20.960Z,3.70
2022-08-23T01:19:55.118Z,3.80
2022-08-23T01:22:30.268Z,3.70
2022-08-23T01:25:07.451Z,3.50
2022-08-23T01:27:39.309Z,3.88
2022-08-23T01:30:13.079Z,3.38
2022-08-23T01:32:47.598Z,4.05
2022-08-23T01:35:18.771Z,3.75
2022-08-23T01:37:49.383Z,3.70
2022-08-23T01:40:21.900Z,3.60
2022-08-23T01:42:51.651Z,2.70
2022-08-23T01:45:21.620Z,2.85
2022-08-23T01:47:51.358Z,2.80
2022-08-23T01:50:21.231Z,2.60
2022-08-23T01:52:51.297Z,3.28
2022-08-23T01:55:24.625Z,3.92
2022-08-23T01:57:58.034Z,4.28
2022-08-23T02:00:32.958Z,4.53
2022-08-23T02:03:03.160Z,3.63
2022-08-23T02:05:33.552Z,5.05
2022-08-23T02:08:23.930Z,3.90
2022-08-23T02:10:56.963Z,4.22
2022-08-23T02:13:27.240Z,3.70
2022-08-23T02:15:58.558Z,3.90
2022-08-23T02:18:29.030Z,3.88
2022-08-23T02:20:58.800Z,4.15
2022-08-23T02:23:29.079Z,4.65
2022-08-23T02:26:01.402Z,4.40
2022-08-23T02:28:31.112Z,4.45
2022-08-23T02:31:00.840Z,5.10
2022-08-23T02:33:32.236Z,4.70
2022-08-23T02:36:02.007Z,4.47
2022-08-23T02:38:32.148Z,6.72
2022-08-23T02:41:04.517Z,9.10
2022-08-23T02:43:38.283Z,7.30
2022-08-23T02:46:10.559Z,6.55
2022-08-23T02:48:40.399Z,6.82
2022-08-23T02:51:11.915Z,7.20
2022-08-23T02:53:41.785Z,8.88
2022-08-23T02:56:21.155Z,7.15
2022-08-23T02:58:54.205Z,7.05
2022-08-23T03:01:27.640Z,6.57
2022-08-23T03:03:58.030Z,6.78
2022-08-23T03:06:27.888Z,6.00
2022-08-23T03:08:58.753Z,7.78
2022-08-23T03:11:31.096Z,7.78
2022-08-23T03:14:01.430Z,9.75
2022-08-23T03:16:31.512Z,8.18
2022-08-23T03:19:02.384Z,7.07
2022-08-23T03:21:32.505Z,8.90
2022-08-23T03:24:05.704Z,7.50
2022-08-23T03:26:40.703Z,7.60
2022-08-23T03:29:10.402Z,8.60
2022-08-23T03:31:40.176Z,8.07
2022-08-23T03:34:10.992Z,7.05
2022-08-23T03:36:40.915Z,6.40
2022-08-23T03:39:10.744Z,6.88
2022-08-23T03:41:43.135Z,7.45
2022-08-23T03:44:12.969Z,7.10
2022-08-23T03:46:42.760Z,7.75
2022-08-23T03:49:12.665Z,6.43
2022-08-23T03:51:42.500Z,6.80
2022-08-23T03:54:12.268Z,6.25
2022-08-23T03:56:54.170Z,6.93
2022-08-23T03:59:24.205Z,7.57
2022-08-23T04:01:53.947Z,9.05
2022-08-23T04:04:23.793Z,7.75
2022-08-23T04:06:53.531Z,6.68
2022-08-23T04:09:23.258Z,7.88
2022-08-23T04:11:55.583Z,6.82
2022-08-23T04:14:25.564Z,8.30
2022-08-23T04:16:55.828Z,7.88
2022-08-23T04:19:26.163Z,7.60
2022-08-23T04:21:56.236Z,7.93
2022-08-23T04:24:26.020Z,7.10
2022-08-23T04:26:58.383Z,8.35
2022-08-23T04:29:34.364Z,8.30
2022-08-23T04:32:05.651Z,7.60
2022-08-23T04:34:40.079Z,7.55
2022-08-23T04:37:09.964Z,7.32
2022-08-23T04:40:01.550Z,7.55
2022-08-23T04:42:31.396Z,8.00
2022-08-23T04:45:01.442Z,8.13
2022-08-23T04:47:31.168Z,8.02
2022-08-23T04:50:00.916Z,7.50
2022-08-23T04:52:30.758Z,7.57
2022-08-23T04:55:00.486Z,7.13
2022-08-23T04:57:32.957Z,6.70
2022-08-23T05:00:02.691Z,7.20
2022-08-23T05:02:32.430Z,7.47
2022-08-23T05:05:02.840Z,7.35
2022-08-23T05:07:42.061Z,6.97
2022-08-23T05:10:15.141Z,7.70
2022-08-23T05:12:48.148Z,7.47
2022-08-23T05:15:17.889Z,7.15
2022-08-23T05:17:47.617Z,7.50
2022-08-23T05:20:17.382Z,8.23
2022-08-23T05:22:47.344Z,8.13
2022-08-23T05:25:17.104Z,7.80
2022-08-23T05:27:49.513Z,7.78
2022-08-23T05:30:19.237Z,10.18
2022-08-23T05:32:49.377Z,9.45
2022-08-23T05:35:19.373Z,8.93
2022-08-23T05:37:49.171Z,7.70
2022-08-23T05:40:19.077Z,8.60
2022-08-23T05:42:51.452Z,9.43
2022-08-23T05:45:21.433Z,9.82
2022-08-23T05:47:51.696Z,8.13
2022-08-23T05:50:25.501Z,8.43
2022-08-23T05:52:55.367Z,8.52
2022-08-23T05:55:34.947Z,8.45
2022-08-23T05:58:07.588Z,9.20
2022-08-23T06:00:40.551Z,9.68
2022-08-23T06:03:10.620Z,8.63
2022-08-23T06:05:43.547Z,9.20
2022-08-23T06:08:13.273Z,11.13
2022-08-23T06:10:43.132Z,8.75
2022-08-23T06:13:15.608Z,7.63
2022-08-23T06:15:46.297Z,8.10
2022-08-23T06:18:16.972Z,7.50
2022-08-23T06:20:46.800Z,7.18
2022-08-23T06:23:16.594Z,7.80
2022-08-23T06:25:46.332Z,8.50
2022-08-23T06:28:18.818Z,10.10
2022-08-23T06:30:57.676Z,7.68
2022-08-23T06:33:29.056Z,10.15
2022-08-23T06:36:06.501Z,8.50
2022-08-23T06:38:37.148Z,6.20
2022-08-23T06:41:09.752Z,5.07
2022-08-23T06:43:43.215Z,5.65
2022-08-23T06:46:14.597Z,6.93
2022-08-23T06:48:47.333Z,7.95
2022-08-23T06:51:22.215Z,6.82
2022-08-23T06:53:55.235Z,7.00
2022-08-23T06:56:25.558Z,9.45
2022-08-23T06:58:58.528Z,8.93
2022-08-23T07:01:49.194Z,5.80
2022-08-23T07:04:21.496Z,6.43
2022-08-23T07:06:51.279Z,7.72
2022-08-23T07:09:21.500Z,8.50
2022-08-23T07:11:51.472Z,8.00
2022-08-23T07:14:25.048Z,6.22
2022-08-23T07:16:57.223Z,6.45
2022-08-23T07:19:30.787Z,6.35
2022-08-23T07:22:01.487Z,6.15
2022-08-23T07:24:33.649Z,5.82
2022-08-23T07:27:07.153Z,6.00
2022-08-23T07:29:40.134Z,5.50
2022-08-23T07:32:10.809Z,6.10
2022-08-23T07:34:40.631Z,5.75
2022-08-23T07:37:11.241Z,7.18
2022-08-23T07:39:46.113Z,7.63
2022-08-23T07:42:22.688Z,6.68
2022-08-23T07:44:55.771Z,5.55
2022-08-23T07:47:28.553Z,5.90
2022-08-23T07:49:58.408Z,6.97
2022-08-23T07:52:28.247Z,6.20
2022-08-23T07:54:57.989Z,5.93
2022-08-23T07:57:29.440Z,5.65
2022-08-23T08:00:01.756Z,5.30
2022-08-23T08:02:31.524Z,5.13
2022-08-23T08:05:01.289Z,4.45
2022-08-23T08:07:31.632Z,4.80
2022-08-23T08:10:06.140Z,4.32
2022-08-23T08:12:36.126Z,3.90
2022-08-23T08:15:09.457Z,4.28
2022-08-23T08:17:39.190Z,4.13
2022-08-23T08:20:10.160Z,4.57
2022-08-23T08:22:40.533Z,4.22
2022-08-23T08:25:13.243Z,4.10
2022-08-23T08:27:43.793Z,4.40
2022-08-23T08:30:17.163Z,4.10
2022-08-23T08:32:47.547Z,4.55
2022-08-23T08:35:17.369Z,3.92
2022-08-23T08:37:47.280Z,3.78
2022-08-23T08:40:23.413Z,4.35
2022-08-23T08:43:10.016Z,3.70
2022-08-23T08:45:58.888Z,3.88
2022-08-23T08:48:30.975Z,2.90
2022-08-23T08:51:04.635Z,3.83
2022-08-23T08:53:40.387Z,3.00
2022-08-23T08:56:21.511Z,4.53
2022-08-23T08:58:56.452Z,3.88
2022-08-23T09:01:29.772Z,3.90
2022-08-23T09:04:00.515Z,3.58
2022-08-23T09:06:36.825Z,4.57
2022-08-23T09:09:18.237Z,3.47
2022-08-23T09:12:08.444Z,4.03
2022-08-23T09:14:52.487Z,3.65
2022-08-23T09:17:34.918Z,3.97
2022-08-23T09:20:07.584Z,4.28
2022-08-23T09:22:42.356Z,3.88
2022-08-23T09:25:13.582Z,3.83
2022-08-23T09:27:45.821Z,3.60
2022-08-23T09:30:19.404Z,2.72
2022-08-23T09:32:52.452Z,4.13
2022-08-23T09:35:25.049Z,3.13
2022-08-23T09:38:00.659Z,3.00
2022-08-23T09:40:41.330Z,2.72
2022-08-23T09:43:16.642Z,3.22
2022-08-23T09:45:59.104Z,2.53
2022-08-23T09:48:40.487Z,4.25
2022-08-23T09:51:20.405Z,3.20
2022-08-23T09:53:53.553Z,2.70
2022-08-23T09:56:27.622Z,3.60
2022-08-23T09:58:57.677Z,8.80
2022-08-23T10:01:29.723Z,3.13
2022-08-23T10:04:17.893Z,2.55
2022-08-23T10:06:48.945Z,3.20
2022-08-23T10:09:28.042Z,4.00
2022-08-23T10:12:00.147Z,3.60
2022-08-23T10:14:33.981Z,3.13
2022-08-23T10:17:13.016Z,3.15
2022-08-23T10:19:56.687Z,2.78
2022-08-23T10:22:29.869Z,2.63
2022-08-23T10:25:08.784Z,2.85
2022-08-23T10:28:00.925Z,2.10
2022-08-23T10:30:39.669Z,2.92
2022-08-23T10:33:18.506Z,3.05
2022-08-23T10:35:59.667Z,2.30
2022-08-23T10:38:41.351Z,3.10
2022-08-23T10:41:46.916Z,2.85
2022-08-23T10:44:33.284Z,3.60
2022-08-23T10:47:22.448Z,3.83
2022-08-23T10:49:55.898Z,2.58
2022-08-23T10:52:34.707Z,2.78
2022-08-23T10:55:17.664Z,2.97
2022-08-23T10:57:51.418Z,3.10
2022-08-23T11:00:24.527Z,2.80
2022-08-23T11:03:02.354Z,2.55
2022-08-23T11:05:35.444Z,3.50
2022-08-23T11:08:11.381Z,2.70
2022-08-23T11:10:56.006Z,2.28
2022-08-23T11:13:29.499Z,2.55
2022-08-23T11:16:02.412Z,2.58
2022-08-23T11:18:43.473Z,2.17
2022-08-23T11:21:44.500Z,2.60
2022-08-23T11:24:57.611Z,2.25
2022-08-23T11:27:36.900Z,3.10
2022-08-23T11:30:39.501Z,2.35
2022-08-23T11:33:19.540Z,3.00
2022-08-23T11:39:27.053Z,2.40
2022-08-23T11:42:09.218Z,2.80
2022-08-23T11:44:44.141Z,2.40
2022-08-23T11:47:14.509Z,2.42
2022-08-23T11:50:00.355Z,1.90
2022-08-23T11:52:54.057Z,2.00
2022-08-23T11:55:57.931Z,2.17
2022-08-23T11:58:37.567Z,2.40
2022-08-23T12:01:10.116Z,2.13
2022-08-23T12:03:55.872Z,2.15
2022-08-23T12:06:50.875Z,2.30
2022-08-23T12:10:03.408Z,2.17
2022-08-23T12:12:42.782Z,2.60
2022-08-23T12:15:15.618Z,2.33
2022-08-23T12:18:14.693Z,2.30
2022-08-23T12:20:48.508Z,2.10
2022-08-23T12:23:23.952Z,2.70
2022-08-23T12:26:06.096Z,3.10
2022-08-23T12:28:45.897Z,2.42
2022-08-23T12:31:32.986Z,2.95
2022-08-23T12:34:18.399Z,2.28
2022-08-23T12:36:57.159Z,2.55
2022-08-23T12:39:32.344Z,2.25
2022-08-23T12:42:08.316Z,2.55
2022-08-23T12:44:40.699Z,1.90
2022-08-23T12:47:17.425Z,2.22
2022-08-23T12:49:59.272Z,2.13
2022-08-23T12:52:31.598Z,2.40
2022-08-23T12:55:01.649Z,2.70
2022-08-23T12:57:38.484Z,2.80
2022-08-23T13:00:22.436Z,2.85
2022-08-23T13:02:59.021Z,3.10
2022-08-23T13:05:37.103Z,2.63
2022-08-23T13:08:11.380Z,3.22
2022-08-23T13:10:43.811Z,2.30
2022-08-23T13:13:16.029Z,2.40
2022-08-23T13:15:52.509Z,2.30
2022-08-23T13:18:35.456Z,2.60
2022-08-23T13:21:22.686Z,2.50
2022-08-23T13:23:52.564Z,2.40
2022-08-23T13:26:31.857Z,2.63
2022-08-23T13:29:11.141Z,2.20
2022-08-23T13:32:03.336Z,2.05
2022-08-23T13:34:46.990Z,2.25
2022-08-23T13:37:23.213Z,2.35
2022-08-23T13:39:56.083Z,2.50
2022-08-23T13:42:35.856Z,3.70
2022-08-23T13:45:16.264Z,2.90
2022-08-23T13:47:54.860Z,2.90
2022-08-23T13:50:28.094Z,3.10
2022-08-23T13:55:51.921Z,3.10
2022-08-23T13:58:31.525Z,4.43
2022-08-23T14:01:03.664Z,3.55
2022-08-23T14:03:36.015Z,4.78
2022-08-23T14:06:05.758Z,4.40
2022-08-23T14:08:35.475Z,4.75
2022-08-23T14:11:05.921Z,4.03
2022-08-23T14:13:37.389Z,4.50
2022-08-23T14:20:31.508Z,5.18
2022-08-23T14:21:54.281Z,4.35
2022-08-23T14:24:26.960Z,4.35
2022-08-23T14:26:57.557Z,4.00
2022-08-23T14:29:30.748Z,5.80
2022-08-23T14:32:01.912Z,4.28
2022-08-23T14:34:34.364Z,7.43
2022-08-23T14:39:54.161Z,4.70
2022-08-23T14:42:25.632Z,5.28
2022-08-23T14:44:55.352Z,5.80
2022-08-23T14:47:25.179Z,7.38
2022-08-23T14:49:57.589Z,8.13
2022-08-23T14:52:27.457Z,7.82
2022-08-23T14:54:57.211Z,12.73
2022-08-23T14:57:26.944Z,11.57
2022-08-23T14:59:59.086Z,8.63
2022-08-23T15:02:30.368Z,9.68
2022-08-23T15:05:02.728Z,9.55
2022-08-23T15:07:32.498Z,12.45
2022-08-23T15:10:02.226Z,12.52
2022-08-23T15:15:23.322Z,9.38
2022-08-23T15:17:57.317Z,9.82
2022-08-23T15:20:32.168Z,11.52
2022-08-23T15:23:02.351Z,10.30
2022-08-23T15:25:34.330Z,9.50
2022-08-23T15:28:06.040Z,10.52
2022-08-23T15:30:37.517Z,13.25
2022-08-23T15:33:07.590Z,12.98
2022-08-23T15:35:45.683Z,16.10
2022-08-23T15:38:17.896Z,12.65
2022-08-23T15:40:48.107Z,11.50
2022-08-23T15:43:18.194Z,17.30
2022-08-23T15:45:48.562Z,15.90
2022-08-23T15:48:24.343Z,14.55
2022-08-23T15:50:56.975Z,18.30
2022-08-23T15:53:26.738Z,12.77
2022-08-23T15:55:56.817Z,13.48
2022-08-23T15:58:28.924Z,18.27
2022-08-23T16:00:58.743Z,14.32
2022-08-23T16:03:28.600Z,13.93
2022-08-23T16:06:01.053Z,13.18
2022-08-23T16:08:36.646Z,14.23
2022-08-23T16:11:12.307Z,18.88
2022-08-23T16:13:43.761Z,21.98
2022-08-23T16:16:19.605Z,24.63
2022-08-23T16:18:50.858Z,23.60
2022-08-23T16:21:25.357Z,24.10
2022-08-23T16:23:55.243Z,23.10
2022-08-23T16:26:34.481Z,24.42
2022-08-23T16:29:06.874Z,22.10
2022-08-23T16:31:39.933Z,17.92
2022-08-23T16:34:12.623Z,23.38
2022-08-23T16:36:48.067Z,23.77
2022-08-23T16:39:19.344Z,21.25
2022-08-23T16:41:49.114Z,17.30
2022-08-23T16:44:20.079Z,18.77
2022-08-23T16:46:49.851Z,17.00
2022-08-23T16:49:21.402Z,19.30
2022-08-23T16:51:53.780Z,20.33
2022-08-23T16:54:23.547Z,17.23
2022-08-23T16:56:53.260Z,15.85
2022-08-23T16:59:23.197Z,16.38
2022-08-23T17:01:56.120Z,19.70
2022-08-23T17:04:30.268Z,19.40
2022-08-23T17:07:03.463Z,21.80
2022-08-23T17:09:33.254Z,19.70
2022-08-23T17:12:03.642Z,22.10
2022-08-23T17:14:33.391Z,15.93
2022-08-23T17:17:03.097Z,14.27
2022-08-23T17:19:32.874Z,16.40
2022-08-23T17:22:05.271Z,16.55
2022-08-23T17:24:34.983Z,20.77
2022-08-23T17:27:04.803Z,16.88
2022-08-23T17:29:37.528Z,17.13
2022-08-23T17:32:07.792Z,19.80
2022-08-23T17:34:39.283Z,19.15
2022-08-23T17:37:18.128Z,15.20
2022-08-23T17:39:48.046Z,17.52
2022-08-23T17:42:17.821Z,18.15
2022-08-23T17:44:48.116Z,19.10
2022-08-23T17:47:20.712Z,17.23
2022-08-23T17:49:50.682Z,17.75
2022-08-23T17:52:23.319Z,18.75
2022-08-23T17:54:53.015Z,15.35
2022-08-23T17:57:23.268Z,22.48
2022-08-23T17:59:53.365Z,15.57
2022-08-23T18:02:23.530Z,15.95
2022-08-23T18:04:53.248Z,13.13
2022-08-23T18:07:26.389Z,23.65
2022-08-23T18:09:56.099Z,17.98
2022-08-23T18:12:25.843Z,21.98
2022-08-23T18:14:55.587Z,20.60
2022-08-23T18:17:25.316Z,25.95
2022-08-23T18:19:55.045Z,22.33
2022-08-23T18:22:27.678Z,22.98
2022-08-23T18:24:57.392Z,20.73
2022-08-23T18:27:39.596Z,23.45
2022-08-23T18:30:12.639Z,18.35
2022-08-23T18:32:42.377Z,24.40
2022-08-23T18:35:12.625Z,18.17
2022-08-23T18:37:45.184Z,18.17
2022-08-23T18:40:15.737Z,20.02
2022-08-23T18:42:45.509Z,19.85
2022-08-23T18:45:16.701Z,19.95
2022-08-23T18:47:49.084Z,27.15
2022-08-23T18:50:19.862Z,18.73
2022-08-23T18:52:52.180Z,19.60
2022-08-23T18:55:21.989Z,18.05
2022-08-23T18:57:51.696Z,17.02
2022-08-23T19:00:22.029Z,19.40
2022-08-23T19:02:52.824Z,21.05
2022-08-23T19:05:22.715Z,21.00
2022-08-23T19:07:55.144Z,18.30
2022-08-23T19:10:25.259Z,18.90
2022-08-23T19:12:55.251Z,26.70
2022-08-23T19:15:25.095Z,24.08
2022-08-23T19:17:58.068Z,20.10
2022-08-23T19:20:28.412Z,19.05
2022-08-23T19:23:01.689Z,22.50
2022-08-23T19:25:34.051Z,18.33
2022-08-23T19:28:03.840Z,16.23
2022-08-23T19:30:33.957Z,17.30
2022-08-23T19:33:03.939Z,17.08
2022-08-23T19:35:33.913Z,17.38
2022-08-23T19:38:06.424Z,16.10
2022-08-23T19:40:36.978Z,16.30
2022-08-23T19:43:07.425Z,17.35
2022-08-23T19:45:37.330Z,18.70
2022-08-23T19:48:08.075Z,18.65
2022-08-23T19:50:37.912Z,16.65
2022-08-23T19:53:10.866Z,15.75
2022-08-23T19:55:43.556Z,16.58
2022-08-23T19:58:16.328Z,17.17
2022-08-23T20:00:46.158Z,16.95
2022-08-23T20:03:15.947Z,13.50
2022-08-23T20:05:45.644Z,15.10
2022-08-23T20:08:17.989Z,14.73
2022-08-23T20:10:47.735Z,13.68
2022-08-23T20:13:17.475Z,16.02
2022-08-23T20:15:47.234Z,13.15
2022-08-23T20:18:16.961Z,15.68
2022-08-23T20:20:46.728Z,14.77
2022-08-23T20:23:31.483Z,14.55
2022-08-23T20:26:01.236Z,16.48
2022-08-23T20:28:31.588Z,13.65
2022-08-23T20:31:08.190Z,15.43
2022-08-23T20:33:37.925Z,13.98
2022-08-23T20:36:07.808Z,14.02
2022-08-23T20:38:40.161Z,14.88
2022-08-23T20:41:10.288Z,15.60
2022-08-23T20:43:49.496Z,16.92
2022-08-23T20:46:19.390Z,18.13
2022-08-23T20:48:49.514Z,15.77
2022-08-23T20:51:19.240Z,18.98
2022-08-23T20:53:52.043Z,19.40
2022-08-23T20:56:23.524Z,17.55
2022-08-23T20:58:54.314Z,19.52
2022-08-23T21:01:25.091Z,18.70
2022-08-23T21:03:55.363Z,21.42
2022-08-23T21:06:28.153Z,23.48
2022-08-23T21:09:02.476Z,19.55
2022-08-23T21:11:32.215Z,23.60
2022-08-23T21:14:01.981Z,22.55
2022-08-23T21:16:31.903Z,21.20
2022-08-23T21:19:01.698Z,20.83
2022-08-23T21:21:32.068Z,17.38
2022-08-23T21:24:04.530Z,19.88
2022-08-23T21:26:34.710Z,18.63
2022-08-23T21:29:04.923Z,22.63
2022-08-23T21:31:34.827Z,19.65
2022-08-23T21:34:04.836Z,17.48
2022-08-23T21:36:34.837Z,19.35
2022-08-23T21:39:07.714Z,23.13
2022-08-23T21:41:41.565Z,18.58
2022-08-23T21:44:14.026Z,18.50
2022-08-23T21:46:44.225Z,18.20
2022-08-23T21:49:14.539Z,18.95
2022-08-23T21:51:44.995Z,18.63
2022-08-23T21:54:18.469Z,21.00
2022-08-23T21:56:48.705Z,18.35
2022-08-23T21:59:20.871Z,19.58
2022-08-23T22:01:50.862Z,19.75
2022-08-23T22:04:20.785Z,21.63
2022-08-23T22:06:50.889Z,19.92
2022-08-23T22:09:31.423Z,22.42
2022-08-23T22:12:02.148Z,18.98
2022-08-23T22:14:32.684Z,17.60
2022-08-23T22:17:03.196Z,18.63
2022-08-23T22:19:32.948Z,17.08
2022-08-23T22:22:03.063Z,19.38
2022-08-23T22:24:35.431Z,18.80
2022-08-23T22:27:05.137Z,19.83
2022-08-23T22:29:35.985Z,17.98
2022-08-23T22:32:06.218Z,19.85
2022-08-23T22:34:37.351Z,15.93
2022-08-23T22:37:07.548Z,18.63
2022-08-23T22:39:39.907Z,18.52
2022-08-23T22:42:10.372Z,20.77
2022-08-23T22:44:40.483Z,19.92
2022-08-23T22:47:10.250Z,19.23
2022-08-23T22:49:41.087Z,19.27
2022-08-23T22:52:10.774Z,18.10
2022-08-23T22:54:43.216Z,19.63
2022-08-23T22:57:13.167Z,19.15
2022-08-23T22:59:42.908Z,18.60
2022-08-23T23:02:13.995Z,18.10
2022-08-23T23:04:45.746Z,19.92
2022-08-23T23:07:35.930Z,18.83
2022-08-23T23:10:09.212Z,17.63
2022-08-23T23:12:39.525Z,17.95
2022-08-23T23:15:10.475Z,18.05
2022-08-23T23:17:40.183Z,18.02
2022-08-23T23:20:23.849Z,16.45
2022-08-23T23:22:53.590Z,17.50
2022-08-23T23:25:26.357Z,16.45
2022-08-23T23:27:56.067Z,16.52
2022-08-23T23:30:28.927Z,15.57
2022-08-23T23:32:59.192Z,15.30
2022-08-23T23:35:29.848Z,14.48
2022-08-23T23:38:00.932Z,14.73
2022-08-23T23:40:33.710Z,14.65
2022-08-23T23:43:03.726Z,14.80
2022-08-23T23:45:33.530Z,15.40
2022-08-23T23:48:03.372Z,15.60
2022-08-23T23:50:38.116Z,13.80
2022-08-23T23:53:14.714Z,12.77
2022-08-23T23:55:48.194Z,12.27
2022-08-23T23:58:17.935Z,13.70
